Terminal Aerodrome Forecast
Issued by NWS Dallas/Fort Worth, TX

Home | Current Version | Previous Version | Text Only | Print | Product List | Glossary On
Versions: 1 2 3 4 5 6 7 8 9 10 11 12 13 14 15 16 17 18 19 20 21 22 23 24 25
000
FTUS44 KFWD 310500
TAFACT
TAF
KACT 310530Z 3106/0106 09006KT P6SM BKN120
     FM311500 12010KT P6SM OVC030
     FM312000 14012KT P6SM -RA BKN012 OVC025
     FM010200 15012KT 4SM -RA BR OVC007=

USA.gov is the U.S. government's official web portal to all federal, state and local government web resources and services.